Time;durP1;ratioP1;P1;durP2;ratioP2;P2;SDS_P1;SDS_P2;PMS_P1;PMS_P2;Temp;Humidity;BMP_temperature;BMP_pressure;BME280_temperature;BME280_humidity;BME280_pressure;Samples;Min_cycle;Max_cycle;Signal;HPM_P1;HPM_P2
2022/06/23 00:02:09;;;;;;;6.50;4.78;;;;;;;17.78;59.80;100441.09;5032641;28;20033;-65
2022/06/23 00:04:43;;;;;;;7.47;4.15;;;;;;;17.73;59.59;100442.16;5015008;28;20088;-65
2022/06/23 00:07:24;;;;;;;5.22;3.60;;;;;;;17.75;59.56;100450.06;5014693;28;20041;-63
2022/06/23 00:10:01;;;;;;;5.65;3.40;;;;;;;17.74;59.73;100448.31;5027344;28;20551;-65
2022/06/23 00:12:33;;;;;;;6.15;3.00;;;;;;;17.77;59.15;100450.00;5033101;28;20048;-64
2022/06/23 00:14:58;;;;;;;6.22;2.78;;;;;;;17.75;59.11;100455.38;5015329;28;20120;-65
2022/06/23 00:17:28;;;;;;;6.20;3.80;;;;;;;17.71;59.25;100453.78;5029526;28;20442;-63
2022/06/23 00:19:55;;;;;;;7.18;3.65;;;;;;;17.73;59.05;100454.56;5033373;28;20044;-65
2022/06/23 00:22:24;;;;;;;7.05;4.00;;;;;;;17.70;59.22;100455.56;5026166;28;20045;-66
2022/06/23 00:25:00;;;;;;;4.45;3.13;;;;;;;17.72;59.28;100448.41;5033442;28;20397;-65
2022/06/23 00:27:32;;;;;;;4.78;3.53;;;;;;;17.63;59.58;100442.66;5033220;28;20041;-65
2022/06/23 00:30:01;;;;;;;7.47;3.72;;;;;;;17.57;59.57;100446.50;5031652;28;20087;-66
2022/06/23 00:32:29;;;;;;;5.90;3.72;;;;;;;17.55;59.59;100450.16;5012328;28;20041;-66
2022/06/23 00:34:58;;;;;;;4.90;3.10;;;;;;;17.51;59.75;100461.88;5029382;28;20067;-66
2022/06/23 00:37:24;;;;;;;4.90;3.25;;;;;;;17.49;59.72;100452.19;5033249;28;20500;-65
2022/06/23 00:39:56;;;;;;;8.95;4.10;;;;;;;17.36;60.24;100467.03;5031715;28;20436;-65
2022/06/23 00:42:32;;;;;;;7.28;4.30;;;;;;;17.33;60.36;100455.69;5031466;28;20032;-64
2022/06/23 00:45:10;;;;;;;5.55;3.67;;;;;;;17.32;60.45;100457.47;5029505;28;20569;-63
2022/06/23 00:47:54;;;;;;;6.95;3.88;;;;;;;17.41;60.22;100458.81;5006811;28;20438;-64
2022/06/23 00:50:27;;;;;;;5.95;3.60;;;;;;;17.44;60.00;100456.03;5009431;28;20059;-64
2022/06/23 00:52:55;;;;;;;;;;;;;;;17.43;60.63;100456.94;5031738;28;20103;-65
2022/06/23 00:55:27;;;;;;;6.10;3.70;;;;;;;17.26;60.59;100449.78;5030868;28;20289;-65
2022/06/23 00:57:58;;;;;;;11.90;5.20;;;;;;;17.26;60.12;100455.09;5032788;28;20137;-65
2022/06/23 01:00:31;;;;;;;7.63;3.88;;;;;;;17.32;59.91;100444.19;5005072;28;21385;-63
2022/06/23 01:03:29;;;;;;;7.63;3.97;;;;;;;17.33;60.12;100445.06;5030802;28;20033;-65
2022/06/23 01:06:27;;;;;;;6.70;3.75;;;;;;;17.37;60.22;100446.63;5026894;28;20040;-64
2022/06/23 01:08:59;;;;;;;6.82;3.58;;;;;;;17.39;59.70;100444.75;5023104;28;20536;-63
2022/06/23 01:11:27;;;;;;;4.60;3.42;;;;;;;17.36;59.71;100448.44;5030100;28;20485;-65
2022/06/23 01:14:03;;;;;;;7.80;4.53;;;;;;;17.25;60.13;100445.44;5013384;28;20048;-65
2022/06/23 01:16:38;;;;;;;9.88;5.60;;;;;;;17.20;60.22;100442.13;5030192;28;20040;-63
2022/06/23 01:19:23;;;;;;;10.73;5.97;;;;;;;17.17;60.79;100445.78;5030017;28;20033;-63
2022/06/23 01:21:58;;;;;;;8.07;5.07;;;;;;;17.03;60.71;100437.59;5031829;28;20476;-64
2022/06/23 01:25:05;;;;;;;6.13;4.20;;;;;;;17.06;60.89;100447.22;5030070;28;20048;-65
2022/06/23 01:27:39;;;;;;;6.28;4.45;;;;;;;17.08;60.44;100446.25;5030534;28;20125;-64
2022/06/23 01:30:09;;;;;;;4.95;4.00;;;;;;;17.13;60.16;100448.66;5030706;28;20041;-64
2022/06/23 01:32:45;;;;;;;5.50;4.20;;;;;;;17.14;60.62;100447.72;5029211;28;20033;-64
2022/06/23 01:35:15;;;;;;;5.53;3.50;;;;;;;17.03;60.52;100442.91;5032100;28;20083;-65
2022/06/23 01:37:58;;;;;;;8.15;4.35;;;;;;;16.83;61.52;100450.97;5030668;28;20366;-65
2022/06/23 01:40:29;;;;;;;;;;;;;;;16.85;62.16;100452.63;5030721;28;20064;-65
2022/06/23 01:43:04;;;;;;;5.45;3.67;;;;;;;16.75;61.21;100453.97;5031111;28;19960;-65
2022/06/23 01:45:39;;;;;;;7.32;4.40;;;;;;;16.63;61.77;100452.69;5010801;28;20091;-65
2022/06/23 01:48:51;;;;;;;4.82;4.07;;;;;;;16.62;62.03;100452.78;5030957;28;20036;-64
2022/06/23 01:51:38;;;;;;;7.18;4.07;;;;;;;16.65;61.85;100455.28;5027275;28;20037;-65
2022/06/23 01:54:22;;;;;;;7.43;4.45;;;;;;;16.64;61.75;100446.47;5014537;28;20045;-66
2022/06/23 01:56:55;;;;;;;8.55;4.95;;;;;;;16.59;61.50;100450.25;5031534;28;20052;-66
2022/06/23 01:59:24;;;;;;;6.13;4.40;;;;;;;16.53;61.64;100453.19;5021854;28;20080;-65
2022/06/23 02:02:01;;;;;;;6.82;4.53;;;;;;;16.45;62.07;100456.19;5030368;28;20112;-65
2022/06/23 02:04:49;;;;;;;5.15;3.85;;;;;;;16.48;62.21;100456.06;5030200;28;20076;-65
2022/06/23 02:07:18;;;;;;;11.20;7.30;;;;;;;16.39;62.03;100457.31;5021187;28;20445;-64
2022/06/23 02:09:53;;;;;;;7.18;5.03;;;;;;;16.42;62.09;100458.97;5027754;28;20461;-65
2022/06/23 02:12:40;;;;;;;7.68;5.22;;;;;;;16.44;62.13;100454.47;5030240;28;20037;-65
2022/06/23 02:15:15;;;;;;;8.65;5.30;;;;;;;16.48;61.89;100456.06;5012999;28;20541;-66
2022/06/23 02:17:49;;;;;;;9.40;5.78;;;;;;;16.48;61.83;100453.41;5028273;28;20079;-65
2022/06/23 02:20:28;;;;;;;8.50;5.60;;;;;;;16.57;61.45;100460.94;5030141;28;20041;-64
2022/06/23 02:23:10;;;;;;;13.98;5.85;;;;;;;16.58;61.51;100462.66;5027084;28;20064;-65
2022/06/23 02:25:42;;;;;;;9.43;5.70;;;;;;;16.60;61.20;100459.97;5030583;28;20033;-65
2022/06/23 02:28:21;;;;;;;10.15;5.40;;;;;;;16.62;61.52;100463.38;5029425;28;20079;-64
2022/06/23 02:30:53;;;;;;;7.93;5.28;;;;;;;16.66;61.19;100471.13;5029592;28;20032;-64
2022/06/23 02:33:32;;;;;;;9.70;5.43;;;;;;;16.64;61.31;100472.16;5034695;28;20072;-66
2022/06/23 02:36:03;;;;;;;7.40;5.10;;;;;;;16.61;61.26;100472.28;5035482;28;20033;-66
2022/06/23 02:38:45;;;;;;;10.40;5.43;;;;;;;16.65;61.28;100468.56;5034335;28;20037;-65
2022/06/23 02:41:20;;;;;;;11.02;5.80;;;;;;;16.68;61.08;100473.72;5034265;28;20127;-64
2022/06/23 02:43:51;;;;;;;7.90;5.25;;;;;;;16.67;60.90;100472.84;5029860;28;20044;-64
2022/06/23 02:46:35;;;;;;;6.30;4.32;;;;;;;16.72;60.88;100480.63;5034123;28;20029;-65
2022/06/23 02:49:19;;;;;;;7.50;4.50;;;;;;;16.79;60.93;100483.88;5034065;28;20037;-65
2022/06/23 02:52:14;;;;;;;6.25;4.32;;;;;;;16.80;60.92;100483.81;5032992;28;20035;-65
2022/06/23 02:54:50;;;;;;;5.72;3.60;;;;;;;16.88;60.31;100488.78;5034353;28;20080;-65
2022/06/23 02:57:38;;;;;;;9.13;4.28;;;;;;;16.99;60.33;100495.31;5033553;28;20086;-65
2022/06/23 03:00:15;;;;;;;7.07;4.30;;;;;;;17.22;59.24;100490.69;5013176;28;20457;-63
2022/06/23 03:03:13;;;;;;;6.55;4.43;;;;;;;17.06;59.67;100489.69;5033337;28;20496;-66
2022/06/23 03:05:55;;;;;;;7.18;4.30;;;;;;;17.12;59.50;100484.13;5015732;28;20030;-65
2022/06/23 03:08:27;;;;;;;5.47;4.22;;;;;;;17.16;59.47;100497.16;5028366;28;20045;-65
2022/06/23 03:11:05;;;;;;;8.10;4.30;;;;;;;17.14;59.64;100503.47;5032948;28;20033;-65
2022/06/23 03:13:51;;;;;;;7.85;4.97;;;;;;;17.16;59.74;100502.47;5034718;28;20037;-65
2022/06/23 03:16:33;;;;;;;6.32;4.70;;;;;;;17.15;59.88;100508.69;5015890;28;20033;-65
2022/06/23 03:19:10;;;;;;;6.45;4.18;;;;;;;17.24;59.59;100512.75;5000310;28;20071;-65
2022/06/23 03:21:45;;;;;;;7.95;3.88;;;;;;;17.30;59.46;100514.25;5033745;28;20025;-65
2022/06/23 03:24:31;;;;;;;7.47;4.57;;;;;;;17.42;59.34;100513.66;5032043;28;20064;-65
2022/06/23 03:27:05;;;;;;;7.50;4.68;;;;;;;17.57;58.86;100517.38;5034517;28;20095;-66
2022/06/23 03:29:52;;;;;;;5.80;3.67;;;;;;;17.68;58.60;100518.56;5033561;28;20033;-63
2022/06/23 03:32:29;;;;;;;7.32;4.10;;;;;;;17.70;58.52;100516.69;5031999;28;20046;-65
2022/06/23 03:35:12;;;;;;;8.85;5.13;;;;;;;17.71;58.73;100517.56;5034144;28;20037;-65
2022/06/23 03:38:07;;;;;;;7.38;4.72;;;;;;;17.73;59.20;100524.53;4997810;28;20038;-64
2022/06/23 03:43:51;;;;;;;7.35;4.97;;;;;;;17.88;58.81;100514.97;5015402;28;20413;-65
2022/06/23 03:46:36;;;;;;;6.90;5.07;;;;;;;18.07;58.29;100522.00;5016716;28;20393;-67
2022/06/23 03:49:46;;;;;;;8.30;4.88;;;;;;;18.28;58.43;100523.59;5029884;28;20145;-66
2022/06/23 03:52:34;;;;;;;8.40;4.70;;;;;;;18.45;57.87;100530.69;5032299;28;20033;-65
2022/06/23 03:55:08;;;;;;;9.73;5.07;;;;;;;18.50;57.78;100523.34;5015888;28;20046;-65
2022/06/23 03:57:44;;;;;;;9.20;4.88;;;;;;;18.58;57.89;100518.47;5013845;28;20039;-66
2022/06/23 04:00:32;;;;;;;7.80;4.80;;;;;;;18.66;58.56;100516.25;5033869;28;20040;-64
2022/06/23 04:03:11;;;;;;;9.65;4.68;;;;;;;18.64;58.24;100512.84;5031247;28;20029;-65
2022/06/23 04:06:15;;;;;;;9.90;4.75;;;;;;;18.71;58.96;100518.69;5015726;28;20037;-65
2022/06/23 04:08:48;;;;;;;7.57;4.07;;;;;;;18.77;57.98;100513.06;5001713;28;20477;-64
2022/06/23 04:14:06;;;;;;;12.00;4.20;;;;;;;19.05;57.74;100527.56;5031824;28;20405;-65
2022/06/23 04:16:34;;;;;;;8.50;4.43;;;;;;;19.20;57.35;100529.38;5033108;28;20099;-64
2022/06/23 04:19:08;;;;;;;10.25;4.72;;;;;;;19.35;57.23;100528.53;5032498;28;20033;-66
2022/06/23 04:21:34;;;;;;;9.77;4.65;;;;;;;19.51;56.86;100538.31;5005786;28;20071;-66
2022/06/23 04:24:04;;;;;;;9.85;5.47;;;;;;;19.48;57.66;100533.19;5014366;28;20030;-64
2022/06/23 04:26:40;;;;;;;8.43;4.82;;;;;;;19.57;57.80;100541.50;5032106;28;20067;-64
2022/06/23 04:29:10;;;;;;;7.60;4.30;;;;;;;19.69;57.08;100546.16;5033179;28;20370;-66
2022/06/23 04:31:57;;;;;;;7.55;4.25;;;;;;;19.74;57.57;100542.38;5015821;28;20128;-66
2022/06/23 04:34:27;;;;;;;8.05;4.75;;;;;;;19.73;57.53;100551.34;5029931;28;20426;-65
2022/06/23 04:36:53;;;;;;;11.80;4.30;;;;;;;19.82;57.14;100548.13;5029429;28;20051;-65
2022/06/23 04:39:40;;;;;;;9.18;4.35;;;;;;;19.85;57.92;100547.97;5032406;28;20033;-66
2022/06/23 04:42:25;;;;;;;6.95;4.22;;;;;;;20.04;56.61;100561.97;5032183;28;20534;-65
2022/06/23 04:44:57;;;;;;;5.03;3.95;;;;;;;20.25;56.26;100554.50;5030799;28;20096;-65
2022/06/23 04:47:27;;;;;;;6.75;3.88;;;;;;;20.34;56.29;100553.94;5030458;28;20863;-66
2022/06/23 04:50:01;;;;;;;9.57;4.50;;;;;;;20.47;56.34;100563.88;5031669;28;21448;-66
2022/06/23 04:52:37;;;;;;;5.80;3.53;;;;;;;20.62;55.69;100571.00;5031395;28;20028;-67
2022/06/23 04:55:22;;;;;;;6.00;3.83;;;;;;;20.63;55.73;100572.75;5032598;28;20041;-66
2022/06/23 04:58:05;;;;;;;7.47;4.85;;;;;;;20.57;56.32;100573.97;5048638;28;20087;-65
2022/06/23 05:00:48;;;;;;;7.10;4.30;;;;;;;20.75;55.42;100574.66;5033423;28;20389;-64
2022/06/23 05:03:21;;;;;;;7.72;4.95;;;;;;;20.88;55.34;100578.31;5031653;28;20120;-65
2022/06/23 05:06:29;;;;;;;6.45;5.03;;;;;;;20.83;56.13;100583.06;5033008;28;20037;-66
2022/06/23 05:09:04;;;;;;;8.00;5.38;;;;;;;20.85;55.34;100580.28;4949643;29;20515;-66
2022/06/23 05:11:41;;;;;;;8.35;5.43;;;;;;;20.97;55.21;100589.38;5017253;28;20045;-66
2022/06/23 05:14:17;;;;;;;7.78;5.97;;;;;;;21.06;54.82;100591.47;5013672;28;20390;-66
2022/06/23 05:16:50;;;;;;;6.88;4.68;;;;;;;21.05;54.51;100592.44;5024915;28;20025;-66
2022/06/23 05:19:37;;;;;;;9.77;5.82;;;;;;;21.15;54.06;100588.25;5030805;28;20038;-66
2022/06/23 05:22:21;;;;;;;5.38;3.55;;;;;;;21.28;53.51;100593.66;5031953;28;20064;-67
2022/06/23 05:24:48;;;;;;;5.93;3.47;;;;;;;21.40;53.28;100587.59;5023640;28;20120;-67
2022/06/23 05:27:20;;;;;;;5.95;3.88;;;;;;;21.43;53.01;100595.41;5014513;28;20118;-67
2022/06/23 05:29:56;;;;;;;5.28;3.72;;;;;;;21.45;53.06;100592.63;5027757;28;20041;-67
2022/06/23 05:32:30;;;;;;;5.78;3.63;;;;;;;21.51;53.04;100585.09;5029103;28;20029;-67
2022/06/23 05:35:21;;;;;;;5.78;3.65;;;;;;;21.69;52.66;100588.38;5012312;28;20029;-68
2022/06/23 05:38:08;;;;;;;7.07;3.38;;;;;;;21.65;52.56;100587.72;5030750;28;20033;-67
2022/06/23 05:40:47;;;;;;;5.53;3.60;;;;;;;21.79;52.41;100586.84;5013846;28;20029;-67
2022/06/23 05:43:14;;;;;;;4.88;3.08;;;;;;;21.68;52.73;100592.03;5031875;28;20044;-67
2022/06/23 05:45:48;;;;;;;5.60;3.58;;;;;;;21.64;52.73;100579.81;5032017;28;20060;-66
2022/06/23 05:48:35;;;;;;;6.95;3.50;;;;;;;21.85;52.45;100583.75;5011520;28;20304;-67
2022/06/23 05:51:09;;;;;;;7.60;3.25;;;;;;;22.03;51.77;100592.41;5029025;28;20033;-68
2022/06/23 05:54:06;;;;;;;5.07;3.35;;;;;;;22.11;51.91;100595.44;5032170;28;20050;-66
2022/06/23 05:57:06;;;;;;;4.00;3.13;;;;;;;22.15;51.70;100588.09;5024874;28;20034;-65
2022/06/23 06:00:10;;;;;;;7.35;3.38;;;;;;;22.28;51.51;100591.66;5016389;28;20048;-66
2022/06/23 06:02:39;;;;;;;5.78;3.17;;;;;;;22.37;51.40;100590.16;5028652;28;20473;-65
2022/06/23 06:05:05;;;;;;;6.40;3.63;;;;;;;22.37;51.33;100593.69;5033423;28;20041;-67
2022/06/23 06:07:38;;;;;;;6.18;3.35;;;;;;;22.41;51.20;100601.53;5035615;28;20041;-66
2022/06/23 06:10:06;;;;;;;5.50;2.85;;;;;;;22.63;50.84;100593.75;5029906;28;20044;-66
2022/06/23 06:12:39;;;;;;;6.60;3.42;;;;;;;22.69;50.47;100589.78;5034401;28;20151;-64
2022/06/23 06:15:20;;;;;;;6.20;2.95;;;;;;;22.86;50.38;100603.75;5034116;28;20037;-68
2022/06/23 06:17:46;;;;;;;8.27;3.08;;;;;;;23.05;50.05;100606.00;5030550;28;20432;-68
2022/06/23 06:20:14;;;;;;;5.43;3.30;;;;;;;23.21;49.84;100597.75;5017150;28;20477;-69
2022/06/23 06:23:01;;;;;;;5.43;3.33;;;;;;;23.41;49.80;100603.50;5033776;28;20057;-68
2022/06/23 06:25:33;;;;;;;6.25;3.40;;;;;;;23.58;49.15;100608.53;5024666;28;20029;-68
2022/06/23 06:28:14;;;;;;;10.57;4.00;;;;;;;23.71;49.46;100611.22;5035000;28;20060;-69
2022/06/23 06:30:45;;;;;;;7.00;3.33;;;;;;;23.87;48.87;100613.63;5016068;28;20052;-68
2022/06/23 06:33:31;;;;;;;5.70;3.22;;;;;;;23.93;48.52;100618.53;5025061;28;20029;-68
2022/06/23 06:35:57;;;;;;;6.88;3.35;;;;;;;24.00;48.85;100612.59;5049746;28;20037;-69
2022/06/23 06:38:24;;;;;;;7.00;4.10;;;;;;;24.14;48.46;100614.28;5033986;28;20373;-68
2022/06/23 06:40:54;;;;;;;9.35;3.72;;;;;;;24.01;48.53;100617.00;5033728;28;20527;-69
2022/06/23 06:43:24;;;;;;;5.45;3.70;;;;;;;23.95;48.65;100625.50;5036095;28;20094;-69
2022/06/23 06:45:50;;;;;;;5.28;3.00;;;;;;;24.13;48.75;100622.44;5033624;28;20057;-68
2022/06/23 06:48:29;;;;;;;9.77;3.95;;;;;;;24.35;48.53;100617.16;5032264;28;20080;-68
2022/06/23 06:51:04;;;;;;;6.35;3.63;;;;;;;24.42;47.59;100617.63;5030901;28;20131;-68
2022/06/23 06:53:38;;;;;;;5.88;3.17;;;;;;;24.36;47.95;100618.88;5029060;28;20052;-68
2022/06/23 06:56:32;;;;;;;5.15;2.63;;;;;;;24.52;48.88;100614.09;5033889;28;20116;-70
2022/06/23 06:59:14;;;;;;;6.20;3.35;;;;;;;24.68;48.08;100624.50;5029633;28;20496;-68
2022/06/23 07:01:42;;;;;;;5.63;3.60;;;;;;;24.77;48.22;100622.94;5034784;28;20025;-68
2022/06/23 07:04:16;;;;;;;5.43;3.25;;;;;;;24.91;47.86;100625.44;5016788;28;20407;-68
2022/06/23 07:06:52;;;;;;;7.28;4.10;;;;;;;25.02;47.52;100624.59;5033806;28;20095;-68
2022/06/23 07:09:25;;;;;;;8.30;4.05;;;;;;;25.07;47.54;100612.50;5027449;28;20060;-68
2022/06/23 07:12:03;;;;;;;7.72;3.88;;;;;;;25.15;47.29;100603.88;5035199;28;20037;-68
2022/06/23 07:14:40;;;;;;;5.65;3.13;;;;;;;25.25;47.44;100602.13;5028196;28;20045;-68
2022/06/23 07:17:30;;;;;;;6.43;3.80;;;;;;;25.24;47.33;100613.03;5032639;28;20108;-68
2022/06/23 07:20:06;;;;;;;6.30;3.72;;;;;;;25.39;47.20;100613.66;5010905;28;20049;-68
2022/06/23 07:23:04;;;;;;;4.15;2.88;;;;;;;25.46;46.81;100615.72;5034429;28;20025;-67
2022/06/23 07:25:35;;;;;;;5.40;3.28;;;;;;;25.48;47.29;100610.22;5032896;28;20048;-63
2022/06/23 07:28:15;;;;;;;6.72;3.35;;;;;;;25.53;46.95;100618.75;5033866;28;20469;-63
2022/06/23 07:30:46;;;;;;;6.60;3.53;;;;;;;25.58;46.99;100621.97;5034569;28;20105;-63
2022/06/23 07:33:50;;;;;;;6.10;3.63;;;;;;;25.63;45.65;100626.97;5015895;28;20068;-63
2022/06/23 07:36:23;;;;;;;5.03;3.50;;;;;;;25.46;46.35;100614.88;4934994;29;20520;-63
2022/06/23 07:38:57;;;;;;;6.22;3.67;;;;;;;25.30;46.76;100618.78;5016988;28;20053;-64
2022/06/23 07:41:32;;;;;;;5.40;3.50;;;;;;;25.40;46.42;100618.03;5034321;28;20087;-63
2022/06/23 07:44:02;;;;;;;4.65;2.90;;;;;;;25.61;46.71;100619.00;5029166;28;20090;-63
2022/06/23 07:46:29;;;;;;;4.50;3.70;;;;;;;25.74;46.46;100625.13;5016122;28;20029;-64
2022/06/23 07:48:55;;;;;;;7.63;3.53;;;;;;;25.89;46.36;100620.31;5033304;28;20076;-64
2022/06/23 07:51:21;;;;;;;6.10;3.70;;;;;;;26.05;46.18;100625.31;5034175;28;20457;-63
2022/06/23 07:53:51;;;;;;;6.07;3.70;;;;;;;26.21;46.21;100616.81;5031921;28;20508;-65
2022/06/23 07:56:21;;;;;;;6.35;3.95;;;;;;;26.34;46.26;100620.19;5025639;28;20396;-63
2022/06/23 07:58:52;;;;;;;5.50;3.80;;;;;;;26.40;45.68;100616.97;5033452;28;20112;-64
2022/06/23 08:01:27;;;;;;;5.60;3.33;;;;;;;26.39;44.92;100617.97;5032051;28;20037;-64
2022/06/23 08:03:52;;;;;;;5.43;3.05;;;;;;;26.54;45.10;100615.84;5005447;28;20453;-63
2022/06/23 08:06:21;;;;;;;5.00;3.40;;;;;;;26.59;44.60;100621.69;5029214;28;20504;-64
2022/06/23 08:08:49;;;;;;;4.93;3.55;;;;;;;27.13;43.07;100617.09;5021889;28;20548;-65
2022/06/23 08:14:08;;;;;;;5.07;3.50;;;;;;;26.82;44.49;100618.91;5016351;28;20107;-63
2022/06/23 08:16:50;;;;;;;7.72;3.75;;;;;;;26.85;45.17;100618.59;5023395;28;20029;-64
2022/06/23 08:19:40;;;;;;;7.65;4.07;;;;;;;27.16;42.08;100623.06;5014514;28;20026;-63
2022/06/23 08:22:18;;;;;;;5.10;3.08;;;;;;;27.29;43.72;100630.09;5030529;28;20053;-63
2022/06/23 08:24:48;;;;;;;5.30;3.60;;;;;;;27.37;42.92;100639.25;5033458;28;20040;-63
2022/06/23 08:27:18;;;;;;;4.88;3.22;;;;;;;27.44;43.44;100634.13;5023134;28;20370;-62
2022/06/23 08:29:48;;;;;;;7.15;3.25;;;;;;;27.39;42.07;100631.00;5020215;28;20033;-63
2022/06/23 08:32:14;;;;;;;5.93;3.60;;;;;;;26.71;42.79;100625.19;5028636;28;20091;-64
2022/06/23 08:34:54;;;;;;;4.40;3.17;;;;;;;26.57;42.76;100629.06;5031190;28;20029;-62
2022/06/23 08:37:23;;;;;;;4.65;2.80;;;;;;;26.77;43.96;100622.84;5027647;28;20029;-62
2022/06/23 08:39:56;;;;;;;4.65;2.75;;;;;;;26.86;42.80;100618.50;5032657;28;20025;-63
2022/06/23 08:42:45;;;;;;;5.95;2.90;;;;;;;26.91;43.37;100628.88;5038538;28;20037;-62
2022/06/23 08:45:21;;;;;;;3.50;2.88;;;;;;;27.01;44.00;100621.72;5031373;28;20413;-63
2022/06/23 08:47:47;;;;;;;10.02;2.97;;;;;;;27.13;43.09;100620.66;5010571;28;20032;-62
2022/06/23 08:50:24;;;;;;;4.45;2.83;;;;;;;27.15;41.04;100628.63;5023088;28;20128;-62
2022/06/23 08:53:12;;;;;;;5.25;2.38;;;;;;;27.09;40.03;100623.72;5015869;28;20040;-64
2022/06/23 08:55:59;;;;;;;3.65;2.42;;;;;;;27.06;39.35;100624.84;5032241;28;20033;-65
2022/06/23 08:58:41;;;;;;;4.32;3.20;;;;;;;27.16;42.58;100624.94;5032911;28;20037;-63
2022/06/23 09:01:22;;;;;;;3.03;2.00;;;;;;;27.22;41.34;100622.56;5033042;28;20037;-64
2022/06/23 09:04:25;;;;;;;3.42;1.95;;;;;;;27.43;39.48;100627.03;5025734;28;20072;-63
2022/06/23 09:07:01;;;;;;;3.92;2.20;;;;;;;27.60;39.56;100618.28;5027694;28;20040;-63
2022/06/23 09:09:42;;;;;;;4.28;2.00;;;;;;;27.68;39.89;100633.78;5029686;28;20036;-64
2022/06/23 09:12:29;;;;;;;6.10;2.88;;;;;;;27.82;41.21;100632.59;5026456;28;20048;-64
2022/06/23 09:15:23;;;;;;;3.67;2.00;;;;;;;27.90;38.48;100635.47;5010371;28;20041;-62
2022/06/23 09:18:18;;;;;;;3.72;3.05;;;;;;;28.01;41.17;100624.56;5032656;28;20056;-62
2022/06/23 09:21:00;;;;;;;4.20;2.45;;;;;;;28.07;40.35;100623.13;5031602;28;20079;-64
2022/06/23 09:23:44;;;;;;;6.20;2.25;;;;;;;28.06;38.92;100633.09;5025043;28;20025;-63
2022/06/23 09:26:32;;;;;;;3.58;2.00;;;;;;;28.09;37.73;100629.22;5029747;28;20034;-63
2022/06/23 09:29:12;;;;;;;3.33;1.90;;;;;;;28.22;38.45;100627.97;5024990;28;20044;-62
2022/06/23 09:31:59;;;;;;;4.32;2.20;;;;;;;28.31;36.63;100639.78;5025616;28;20033;-62
2022/06/23 09:34:31;;;;;;;4.10;2.33;;;;;;;28.38;38.12;100626.59;5024173;28;20034;-61
2022/06/23 09:37:34;;;;;;;3.90;2.50;;;;;;;28.45;36.08;100635.84;5008030;28;20113;-62
2022/06/23 09:40:11;;;;;;;5.50;2.47;;;;;;;28.21;37.49;100639.78;5030525;28;20037;-61
2022/06/23 09:43:03;;;;;;;2.88;2.13;;;;;;;28.52;36.43;100641.50;5010432;28;20044;-62
2022/06/23 09:45:48;;;;;;;5.10;2.10;;;;;;;28.67;36.41;100650.91;5032340;28;20112;-63
2022/06/23 09:48:37;;;;;;;6.43;3.60;;;;;;;28.92;37.61;100641.31;5033367;28;20034;-61
2022/06/23 09:51:14;;;;;;;3.35;2.40;;;;;;;28.47;35.69;100642.78;5029825;28;20033;-61
2022/06/23 09:54:18;;;;;;;4.40;2.80;;;;;;;28.66;35.97;100647.34;5031179;28;20091;-61
2022/06/23 09:56:59;;;;;;;4.63;2.25;;;;;;;28.52;36.16;100653.19;5000790;28;20062;-62
2022/06/23 09:59:49;;;;;;;6.00;2.47;;;;;;;28.62;36.13;100647.78;5031385;28;20033;-62
2022/06/23 10:02:26;;;;;;;3.90;2.60;;;;;;;28.84;37.49;100636.63;5030727;28;20128;-63
2022/06/23 10:05:20;;;;;;;4.35;2.47;;;;;;;28.49;36.84;100645.38;5028434;28;20038;-62
2022/06/23 10:08:04;;;;;;;6.40;2.38;;;;;;;28.49;37.10;100648.06;5029418;28;20029;-62
2022/06/23 10:11:16;;;;;;;4.82;2.50;;;;;;;28.37;36.38;100627.59;5029857;28;20087;-63
2022/06/23 10:13:48;;;;;;;4.95;2.95;;;;;;;28.29;37.23;100628.28;4992563;28;20059;-61
2022/06/23 10:16:16;;;;;;;3.92;2.72;;;;;;;28.29;37.28;100630.09;5011095;28;20030;-62
2022/06/23 10:18:54;;;;;;;2.60;2.40;;;;;;;28.23;37.08;100629.69;5027568;28;20053;-61
2022/06/23 10:21:54;;;;;;;5.28;2.90;;;;;;;28.56;35.79;100627.56;5028407;28;20059;-61
2022/06/23 10:24:19;;;;;;;8.02;3.70;;;;;;;28.83;36.84;100621.41;5012538;28;20357;-62
2022/06/23 10:27:12;;;;;;;4.53;3.30;;;;;;;28.97;37.79;100614.75;5033535;28;20066;-62
2022/06/23 10:29:45;;;;;;;6.50;5.80;;;;;;;29.18;37.68;100620.78;5029919;28;20037;-62
2022/06/23 10:32:23;;;;;;;4.97;3.58;;;;;;;29.09;36.71;100619.00;5011501;28;20661;-62
2022/06/23 10:35:19;;;;;;;5.68;3.75;;;;;;;29.11;35.05;100630.50;5033253;28;20413;-62
2022/06/23 10:38:35;;;;;;;4.72;2.70;;;;;;;29.01;34.61;100621.56;5028619;28;20049;-62
2022/06/23 10:41:32;;;;;;;3.22;2.55;;;;;;;29.19;34.66;100616.22;4950900;29;20061;-62
2022/06/23 10:44:17;;;;;;;3.72;2.85;;;;;;;29.09;35.04;100621.69;4954369;28;20043;-62
2022/06/23 10:46:49;;;;;;;4.40;2.85;;;;;;;28.90;34.85;100622.56;5016314;28;20049;-62
2022/06/23 10:49:39;;;;;;;3.10;2.60;;;;;;;29.16;35.83;100630.91;5033952;28;20033;-62
2022/06/23 10:52:26;;;;;;;3.08;2.35;;;;;;;29.59;35.14;100621.34;5023870;28;20538;-62
2022/06/23 10:54:54;;;;;;;5.00;4.50;;;;;;;30.35;35.34;100621.03;5029743;28;20497;-63
2022/06/23 10:57:37;;;;;;;2.88;2.60;;;;;;;30.20;34.20;100627.97;5025590;28;20437;-64
2022/06/23 11:00:07;;;;;;;4.82;2.70;;;;;;;29.90;34.29;100629.19;5029337;28;20048;-64
2022/06/23 11:02:58;;;;;;;4.25;2.33;;;;;;;29.81;33.26;100628.22;5013365;28;20108;-64
2022/06/23 11:06:08;;;;;;;3.50;2.47;;;;;;;29.58;33.61;100621.53;5032899;28;20056;-64
2022/06/23 11:08:55;;;;;;;4.28;2.60;;;;;;;29.20;34.99;100620.63;5001808;28;20070;-64
2022/06/23 11:11:42;;;;;;;4.22;2.38;;;;;;;29.02;34.38;100617.00;5030555;28;20041;-65
2022/06/23 11:14:20;;;;;;;3.80;2.70;;;;;;;29.28;34.86;100617.19;5013435;28;20337;-64
2022/06/23 11:17:00;;;;;;;4.97;3.75;;;;;;;29.67;35.66;100607.91;5025214;28;20038;-63
2022/06/23 11:19:51;;;;;;;5.85;2.53;;;;;;;29.69;34.26;100611.34;5021900;28;20030;-64
2022/06/23 11:22:23;;;;;;;3.05;2.38;;;;;;;29.93;34.34;100613.47;5042097;28;20029;-65
2022/06/23 11:25:11;;;;;;;4.15;2.50;;;;;;;30.14;34.26;100610.47;5032179;28;20104;-64
2022/06/23 11:28:04;;;;;;;2.28;2.03;;;;;;;30.37;33.75;100610.03;5032995;28;20040;-64
2022/06/23 11:30:45;;;;;;;3.65;2.33;;;;;;;30.55;33.31;100619.00;5034737;28;20037;-65
2022/06/23 11:33:16;;;;;;;4.55;3.30;;;;;;;30.87;33.78;100602.16;5017082;28;20076;-64
2022/06/23 11:35:44;;;;;;;6.25;4.78;;;;;;;30.85;34.44;100609.59;5033721;28;20084;-64
2022/06/23 11:38:42;;;;;;;4.90;2.75;;;;;;;30.95;31.90;100608.63;5016300;28;20041;-64
2022/06/23 11:41:58;;;;;;;3.50;2.45;;;;;;;30.68;32.05;100614.03;5033249;28;20072;-65
2022/06/23 11:44:38;;;;;;;2.67;2.42;;;;;;;30.94;33.67;100610.50;4999482;28;20492;-64
2022/06/23 11:47:32;;;;;;;4.65;3.70;;;;;;;30.92;34.09;100602.53;5016334;28;20114;-65
2022/06/23 11:50:26;;;;;;;5.53;3.90;;;;;;;30.82;34.68;100609.91;5048912;28;20045;-65
2022/06/23 11:53:10;;;;;;;4.55;2.50;;;;;;;30.77;34.30;100608.69;5007486;28;20045;-65
2022/06/23 11:55:48;;;;;;;4.18;3.00;;;;;;;30.72;33.23;100608.28;5026116;28;20041;-65
2022/06/23 11:58:37;;;;;;;2.63;2.30;;;;;;;30.68;34.47;100622.16;5033837;28;20493;-64
2022/06/23 12:01:15;;;;;;;3.80;2.50;;;;;;;30.57;33.39;100613.44;5021643;28;20056;-65
2022/06/23 12:03:43;;;;;;;6.68;3.00;;;;;;;30.50;34.75;100621.31;5031506;28;20056;-65
2022/06/23 12:06:14;;;;;;;4.38;2.72;;;;;;;30.48;33.14;100623.31;5034082;28;20065;-65
2022/06/23 12:08:39;;;;;;;4.95;3.35;;;;;;;30.58;34.76;100621.41;5032578;28;20473;-65
2022/06/23 12:11:06;;;;;;;3.95;2.50;;;;;;;30.46;34.61;100621.81;5033712;28;20095;-65
2022/06/23 12:13:34;;;;;;;5.28;3.15;;;;;;;30.40;35.23;100621.44;5032253;28;20033;-64
2022/06/23 12:16:00;;;;;;;3.33;2.80;;;;;;;30.33;35.48;100616.78;5024672;28;20036;-65
2022/06/23 12:18:32;;;;;;;4.32;3.08;;;;;;;30.27;35.59;100614.69;5032361;28;20507;-65
2022/06/23 12:21:21;;;;;;;5.50;2.25;;;;;;;30.08;33.62;100612.94;5011184;28;20441;-66
2022/06/23 12:23:57;;;;;;;4.38;3.20;;;;;;;30.11;35.87;100627.03;5013785;28;20064;-65
2022/06/23 12:26:31;;;;;;;3.80;3.40;;;;;;;30.24;35.90;100614.97;5021403;28;20095;-65
2022/06/23 12:29:25;;;;;;;6.63;3.58;;;;;;;30.26;35.78;100611.13;5033732;28;20029;-64